sensor_id;sensor_type;location;lat;lon;timestamp;P1;durP1;ratioP1;P2;durP2;ratioP2
7659;SDS011;3872;47.902;8.162;2022-08-11T00:01:10;6.77;;;1.50;;
7659;SDS011;3872;47.902;8.162;2022-08-11T00:03:44;4.20;;;1.60;;
7659;SDS011;3872;47.902;8.162;2022-08-11T00:06:12;4.40;;;1.50;;
7659;SDS011;3872;47.902;8.162;2022-08-11T00:08:42;4.33;;;1.70;;
7659;SDS011;3872;47.902;8.162;2022-08-11T00:11:14;8.50;;;2.07;;
7659;SDS011;3872;47.902;8.162;2022-08-11T00:13:43;6.77;;;1.90;;
7659;SDS011;3872;47.902;8.162;2022-08-11T00:16:14;7.03;;;2.27;;
7659;SDS011;3872;47.902;8.162;2022-08-11T00:18:43;4.37;;;1.80;;
7659;SDS011;3872;47.902;8.162;2022-08-11T00:21:12;5.37;;;1.83;;
7659;SDS011;3872;47.902;8.162;2022-08-11T00:23:41;4.10;;;1.70;;
7659;SDS011;3872;47.902;8.162;2022-08-11T00:26:09;4.20;;;1.67;;
7659;SDS011;3872;47.902;8.162;2022-08-11T00:28:37;4.73;;;2.10;;
7659;SDS011;3872;47.902;8.162;2022-08-11T00:31:04;6.90;;;2.30;;
7659;SDS011;3872;47.902;8.162;2022-08-11T00:33:36;4.70;;;2.00;;
7659;SDS011;3872;47.902;8.162;2022-08-11T00:36:04;4.60;;;1.90;;
7659;SDS011;3872;47.902;8.162;2022-08-11T00:38:33;4.40;;;1.83;;
7659;SDS011;3872;47.902;8.162;2022-08-11T00:41:04;4.20;;;1.93;;
7659;SDS011;3872;47.902;8.162;2022-08-11T00:43:50;5.43;;;1.90;;
7659;SDS011;3872;47.902;8.162;2022-08-11T00:46:34;4.50;;;1.70;;
7659;SDS011;3872;47.902;8.162;2022-08-11T00:49:11;6.53;;;1.90;;
7659;SDS011;3872;47.902;8.162;2022-08-11T00:51:47;4.20;;;1.77;;
7659;SDS011;3872;47.902;8.162;2022-08-11T00:54:45;5.43;;;2.13;;
7659;SDS011;3872;47.902;8.162;2022-08-11T00:57:35;4.90;;;2.23;;
7659;SDS011;3872;47.902;8.162;2022-08-11T01:00:18;5.00;;;1.57;;
7659;SDS011;3872;47.902;8.162;2022-08-11T01:02:58;5.10;;;2.23;;
7659;SDS011;3872;47.902;8.162;2022-08-11T01:08:56;4.60;;;1.90;;
7659;SDS011;3872;47.902;8.162;2022-08-11T01:14:51;7.40;;;2.10;;
7659;SDS011;3872;47.902;8.162;2022-08-11T01:24:28;5.07;;;2.30;;
7659;SDS011;3872;47.902;8.162;2022-08-11T01:27:20;7.50;;;2.27;;
7659;SDS011;3872;47.902;8.162;2022-08-11T01:30:04;5.80;;;3.80;;
7659;SDS011;3872;47.902;8.162;2022-08-11T01:39:20;4.57;;;1.80;;
7659;SDS011;3872;47.902;8.162;2022-08-11T01:42:20;4.53;;;1.73;;
7659;SDS011;3872;47.902;8.162;2022-08-11T01:45:29;4.20;;;2.00;;
7659;SDS011;3872;47.902;8.162;2022-08-11T01:48:03;5.13;;;1.83;;
7659;SDS011;3872;47.902;8.162;2022-08-11T01:50:43;7.33;;;2.27;;
7659;SDS011;3872;47.902;8.162;2022-08-11T01:53:25;5.33;;;2.43;;
7659;SDS011;3872;47.902;8.162;2022-08-11T01:56:06;4.20;;;2.00;;
7659;SDS011;3872;47.902;8.162;2022-08-11T01:59:01;4.40;;;1.90;;
7659;SDS011;3872;47.902;8.162;2022-08-11T02:01:51;7.70;;;2.20;;
7659;SDS011;3872;47.902;8.162;2022-08-11T02:04:29;6.83;;;2.20;;
7659;SDS011;3872;47.902;8.162;2022-08-11T02:07:01;4.70;;;2.17;;
7659;SDS011;3872;47.902;8.162;2022-08-11T02:09:49;5.37;;;2.10;;
7659;SDS011;3872;47.902;8.162;2022-08-11T02:12:34;6.10;;;2.00;;
7659;SDS011;3872;47.902;8.162;2022-08-11T02:15:11;4.23;;;2.17;;
7659;SDS011;3872;47.902;8.162;2022-08-11T02:17:46;6.40;;;2.10;;
7659;SDS011;3872;47.902;8.162;2022-08-11T02:20:19;5.00;;;1.80;;
7659;SDS011;3872;47.902;8.162;2022-08-11T02:23:12;5.13;;;2.20;;
7659;SDS011;3872;47.902;8.162;2022-08-11T02:26:08;5.20;;;2.20;;
7659;SDS011;3872;47.902;8.162;2022-08-11T02:31:39;7.20;;;2.40;;
7659;SDS011;3872;47.902;8.162;2022-08-11T02:34:31;4.30;;;2.30;;
7659;SDS011;3872;47.902;8.162;2022-08-11T02:37:10;5.83;;;2.50;;
7659;SDS011;3872;47.902;8.162;2022-08-11T02:39:45;5.30;;;1.90;;
7659;SDS011;3872;47.902;8.162;2022-08-11T02:42:25;5.27;;;2.20;;
7659;SDS011;3872;47.902;8.162;2022-08-11T02:45:07;4.73;;;2.40;;
7659;SDS011;3872;47.902;8.162;2022-08-11T02:47:43;6.90;;;2.70;;
7659;SDS011;3872;47.902;8.162;2022-08-11T02:50:34;5.20;;;2.50;;
7659;SDS011;3872;47.902;8.162;2022-08-11T02:53:08;5.43;;;2.00;;
7659;SDS011;3872;47.902;8.162;2022-08-11T02:55:46;4.27;;;2.03;;
7659;SDS011;3872;47.902;8.162;2022-08-11T02:58:22;5.13;;;2.50;;
7659;SDS011;3872;47.902;8.162;2022-08-11T03:01:05;4.97;;;2.50;;
7659;SDS011;3872;47.902;8.162;2022-08-11T03:03:43;6.90;;;2.60;;
7659;SDS011;3872;47.902;8.162;2022-08-11T03:06:21;4.60;;;2.00;;
7659;SDS011;3872;47.902;8.162;2022-08-11T03:08:52;11.73;;;2.37;;
7659;SDS011;3872;47.902;8.162;2022-08-11T03:14:42;6.27;;;2.67;;
7659;SDS011;3872;47.902;8.162;2022-08-11T03:17:35;7.03;;;2.50;;
7659;SDS011;3872;47.902;8.162;2022-08-11T03:20:17;5.40;;;2.47;;
7659;SDS011;3872;47.902;8.162;2022-08-11T03:22:55;11.10;;;2.17;;
7659;SDS011;3872;47.902;8.162;2022-08-11T03:25:29;5.10;;;2.10;;
7659;SDS011;3872;47.902;8.162;2022-08-11T03:28:07;4.23;;;1.80;;
7659;SDS011;3872;47.902;8.162;2022-08-11T03:30:49;4.83;;;2.10;;
7659;SDS011;3872;47.902;8.162;2022-08-11T03:33:22;5.90;;;2.57;;
7659;SDS011;3872;47.902;8.162;2022-08-11T03:36:12;6.00;;;2.87;;
7659;SDS011;3872;47.902;8.162;2022-08-11T03:39:04;5.97;;;2.37;;
7659;SDS011;3872;47.902;8.162;2022-08-11T03:41:39;12.53;;;2.93;;
7659;SDS011;3872;47.902;8.162;2022-08-11T03:44:33;5.00;;;2.20;;
7659;SDS011;3872;47.902;8.162;2022-08-11T03:47:22;6.10;;;2.43;;
7659;SDS011;3872;47.902;8.162;2022-08-11T03:50:06;6.83;;;2.60;;
7659;SDS011;3872;47.902;8.162;2022-08-11T03:52:46;5.00;;;2.50;;
7659;SDS011;3872;47.902;8.162;2022-08-11T03:55:18;5.80;;;2.33;;
7659;SDS011;3872;47.902;8.162;2022-08-11T04:01:09;5.50;;;2.60;;
7659;SDS011;3872;47.902;8.162;2022-08-11T04:07:26;7.03;;;2.47;;
7659;SDS011;3872;47.902;8.162;2022-08-11T04:10:27;6.53;;;2.70;;
7659;SDS011;3872;47.902;8.162;2022-08-11T04:13:12;4.53;;;2.30;;
7659;SDS011;3872;47.902;8.162;2022-08-11T04:16:03;5.10;;;2.60;;
7659;SDS011;3872;47.902;8.162;2022-08-11T04:18:46;6.13;;;2.80;;
7659;SDS011;3872;47.902;8.162;2022-08-11T04:21:20;11.50;;;2.70;;
7659;SDS011;3872;47.902;8.162;2022-08-11T04:24:20;5.43;;;2.43;;
7659;SDS011;3872;47.902;8.162;2022-08-11T04:30:07;6.53;;;2.93;;
7659;SDS011;3872;47.902;8.162;2022-08-11T04:36:01;7.10;;;2.33;;
7659;SDS011;3872;47.902;8.162;2022-08-11T04:39:08;8.50;;;2.77;;
7659;SDS011;3872;47.902;8.162;2022-08-11T04:41:57;5.10;;;2.73;;
7659;SDS011;3872;47.902;8.162;2022-08-11T04:48:09;5.10;;;2.53;;
7659;SDS011;3872;47.902;8.162;2022-08-11T04:51:12;6.37;;;3.17;;
7659;SDS011;3872;47.902;8.162;2022-08-11T04:54:25;11.03;;;2.70;;
7659;SDS011;3872;47.902;8.162;2022-08-11T04:57:27;9.70;;;2.77;;
7659;SDS011;3872;47.902;8.162;2022-08-11T05:00:19;6.87;;;3.03;;
7659;SDS011;3872;47.902;8.162;2022-08-11T05:03:34;8.20;;;2.77;;
7659;SDS011;3872;47.902;8.162;2022-08-11T05:06:28;8.50;;;2.73;;
7659;SDS011;3872;47.902;8.162;2022-08-11T05:09:21;7.70;;;3.13;;
7659;SDS011;3872;47.902;8.162;2022-08-11T05:12:11;6.00;;;2.80;;
7659;SDS011;3872;47.902;8.162;2022-08-11T05:14:48;6.00;;;2.80;;
7659;SDS011;3872;47.902;8.162;2022-08-11T05:17:36;7.07;;;2.80;;
7659;SDS011;3872;47.902;8.162;2022-08-11T05:20:39;8.73;;;2.90;;
7659;SDS011;3872;47.902;8.162;2022-08-11T05:23:31;8.30;;;2.50;;
7659;SDS011;3872;47.902;8.162;2022-08-11T05:26:18;15.87;;;3.50;;
7659;SDS011;3872;47.902;8.162;2022-08-11T05:29:04;12.67;;;3.37;;
7659;SDS011;3872;47.902;8.162;2022-08-11T05:32:11;7.70;;;2.70;;
7659;SDS011;3872;47.902;8.162;2022-08-11T05:34:58;6.40;;;3.20;;
7659;SDS011;3872;47.902;8.162;2022-08-11T05:37:32;6.13;;;3.07;;
7659;SDS011;3872;47.902;8.162;2022-08-11T05:40:07;5.40;;;2.90;;
7659;SDS011;3872;47.902;8.162;2022-08-11T05:42:54;8.40;;;3.17;;
7659;SDS011;3872;47.902;8.162;2022-08-11T05:45:40;6.83;;;3.03;;
7659;SDS011;3872;47.902;8.162;2022-08-11T05:48:30;5.57;;;2.83;;
7659;SDS011;3872;47.902;8.162;2022-08-11T05:51:16;6.07;;;2.60;;
7659;SDS011;3872;47.902;8.162;2022-08-11T05:54:00;6.30;;;2.60;;
7659;SDS011;3872;47.902;8.162;2022-08-11T05:56:48;5.97;;;2.90;;
7659;SDS011;3872;47.902;8.162;2022-08-11T05:59:18;7.20;;;3.00;;
7659;SDS011;3872;47.902;8.162;2022-08-11T06:01:46;6.00;;;2.80;;
7659;SDS011;3872;47.902;8.162;2022-08-11T06:04:17;6.20;;;2.60;;
7659;SDS011;3872;47.902;8.162;2022-08-11T06:06:49;5.40;;;2.43;;
7659;SDS011;3872;47.902;8.162;2022-08-11T06:09:25;6.30;;;2.30;;
7659;SDS011;3872;47.902;8.162;2022-08-11T06:11:56;6.67;;;2.73;;
7659;SDS011;3872;47.902;8.162;2022-08-11T06:14:25;5.23;;;2.43;;
7659;SDS011;3872;47.902;8.162;2022-08-11T06:16:54;5.73;;;2.67;;
7659;SDS011;3872;47.902;8.162;2022-08-11T06:19:31;6.63;;;2.10;;
7659;SDS011;3872;47.902;8.162;2022-08-11T06:22:00;8.90;;;2.93;;
7659;SDS011;3872;47.902;8.162;2022-08-11T06:24:28;5.53;;;2.53;;
7659;SDS011;3872;47.902;8.162;2022-08-11T06:26:56;5.13;;;2.30;;
7659;SDS011;3872;47.902;8.162;2022-08-11T06:29:24;8.50;;;2.30;;
7659;SDS011;3872;47.902;8.162;2022-08-11T06:31:52;5.37;;;2.10;;
7659;SDS011;3872;47.902;8.162;2022-08-11T06:34:27;4.80;;;2.40;;
7659;SDS011;3872;47.902;8.162;2022-08-11T06:37:07;5.83;;;2.53;;
7659;SDS011;3872;47.902;8.162;2022-08-11T06:39:43;6.27;;;2.53;;
7659;SDS011;3872;47.902;8.162;2022-08-11T06:42:15;4.80;;;2.20;;
7659;SDS011;3872;47.902;8.162;2022-08-11T06:44:59;6.47;;;1.77;;
7659;SDS011;3872;47.902;8.162;2022-08-11T06:47:32;5.67;;;2.10;;
7659;SDS011;3872;47.902;8.162;2022-08-11T06:50:01;4.93;;;2.10;;
7659;SDS011;3872;47.902;8.162;2022-08-11T06:52:45;5.00;;;2.10;;
7659;SDS011;3872;47.902;8.162;2022-08-11T06:55:13;5.50;;;2.40;;
7659;SDS011;3872;47.902;8.162;2022-08-11T06:58:10;8.93;;;2.57;;
7659;SDS011;3872;47.902;8.162;2022-08-11T07:00:56;4.97;;;2.23;;
7659;SDS011;3872;47.902;8.162;2022-08-11T07:03:26;5.73;;;2.23;;
7659;SDS011;3872;47.902;8.162;2022-08-11T07:06:01;5.30;;;2.20;;
7659;SDS011;3872;47.902;8.162;2022-08-11T07:12:00;8.60;;;2.10;;
7659;SDS011;3872;47.902;8.162;2022-08-11T07:14:52;5.07;;;2.13;;
7659;SDS011;3872;47.902;8.162;2022-08-11T07:17:40;5.77;;;2.00;;
7659;SDS011;3872;47.902;8.162;2022-08-11T07:20:13;4.80;;;2.07;;
7659;SDS011;3872;47.902;8.162;2022-08-11T07:23:00;8.27;;;2.40;;
7659;SDS011;3872;47.902;8.162;2022-08-11T07:25:48;6.03;;;2.13;;
7659;SDS011;3872;47.902;8.162;2022-08-11T07:28:35;4.80;;;1.90;;
7659;SDS011;3872;47.902;8.162;2022-08-11T07:31:22;6.57;;;2.30;;
7659;SDS011;3872;47.902;8.162;2022-08-11T07:33:55;10.53;;;2.40;;
7659;SDS011;3872;47.902;8.162;2022-08-11T07:36:29;5.70;;;2.00;;
7659;SDS011;3872;47.902;8.162;2022-08-11T07:38:58;5.00;;;2.27;;
7659;SDS011;3872;47.902;8.162;2022-08-11T07:41:26;5.67;;;2.30;;
7659;SDS011;3872;47.902;8.162;2022-08-11T07:43:57;7.27;;;1.90;;
7659;SDS011;3872;47.902;8.162;2022-08-11T07:46:33;6.73;;;1.97;;
7659;SDS011;3872;47.902;8.162;2022-08-11T07:49:19;8.50;;;2.20;;
7659;SDS011;3872;47.902;8.162;2022-08-11T07:52:03;4.57;;;1.93;;
7659;SDS011;3872;47.902;8.162;2022-08-11T07:54:50;6.23;;;2.20;;
7659;SDS011;3872;47.902;8.162;2022-08-11T07:57:17;4.93;;;1.70;;
7659;SDS011;3872;47.902;8.162;2022-08-11T08:00:02;5.77;;;2.30;;
7659;SDS011;3872;47.902;8.162;2022-08-11T08:02:47;4.87;;;2.07;;
7659;SDS011;3872;47.902;8.162;2022-08-11T08:05:31;10.13;;;2.20;;
7659;SDS011;3872;47.902;8.162;2022-08-11T08:08:16;9.60;;;2.30;;
7659;SDS011;3872;47.902;8.162;2022-08-11T08:11:02;10.13;;;2.70;;
7659;SDS011;3872;47.902;8.162;2022-08-11T08:13:47;5.10;;;2.00;;
7659;SDS011;3872;47.902;8.162;2022-08-11T08:16:32;10.10;;;2.03;;
7659;SDS011;3872;47.902;8.162;2022-08-11T08:19:18;5.10;;;2.00;;
7659;SDS011;3872;47.902;8.162;2022-08-11T08:21:46;6.00;;;2.10;;
7659;SDS011;3872;47.902;8.162;2022-08-11T08:24:13;5.17;;;1.93;;
7659;SDS011;3872;47.902;8.162;2022-08-11T08:26:42;5.33;;;2.20;;
7659;SDS011;3872;47.902;8.162;2022-08-11T08:29:25;5.13;;;1.87;;
7659;SDS011;3872;47.902;8.162;2022-08-11T08:32:12;5.40;;;2.10;;
7659;SDS011;3872;47.902;8.162;2022-08-11T08:34:40;5.07;;;1.80;;
7659;SDS011;3872;47.902;8.162;2022-08-11T08:37:07;6.50;;;2.47;;
7659;SDS011;3872;47.902;8.162;2022-08-11T08:39:34;6.50;;;2.00;;
7659;SDS011;3872;47.902;8.162;2022-08-11T08:42:05;4.30;;;1.60;;
7659;SDS011;3872;47.902;8.162;2022-08-11T08:44:38;5.50;;;2.20;;
7659;SDS011;3872;47.902;8.162;2022-08-11T08:47:08;10.00;;;2.50;;
7659;SDS011;3872;47.902;8.162;2022-08-11T08:49:38;4.80;;;1.50;;
7659;SDS011;3872;47.902;8.162;2022-08-11T08:52:13;6.40;;;2.33;;
7659;SDS011;3872;47.902;8.162;2022-08-11T08:54:45;7.90;;;1.97;;
7659;SDS011;3872;47.902;8.162;2022-08-11T08:57:16;7.17;;;2.00;;
7659;SDS011;3872;47.902;8.162;2022-08-11T08:59:45;4.20;;;1.50;;
7659;SDS011;3872;47.902;8.162;2022-08-11T09:02:13;5.43;;;1.63;;
7659;SDS011;3872;47.902;8.162;2022-08-11T09:04:42;4.97;;;1.70;;
7659;SDS011;3872;47.902;8.162;2022-08-11T09:07:11;5.40;;;1.60;;
7659;SDS011;3872;47.902;8.162;2022-08-11T09:09:40;5.83;;;2.23;;
7659;SDS011;3872;47.902;8.162;2022-08-11T09:12:08;4.20;;;1.33;;
7659;SDS011;3872;47.902;8.162;2022-08-11T09:14:39;5.53;;;1.97;;
7659;SDS011;3872;47.902;8.162;2022-08-11T09:17:28;5.60;;;1.87;;
7659;SDS011;3872;47.902;8.162;2022-08-11T09:19:58;5.03;;;2.20;;
7659;SDS011;3872;47.902;8.162;2022-08-11T09:22:26;5.13;;;1.80;;
7659;SDS011;3872;47.902;8.162;2022-08-11T09:25:12;6.33;;;2.10;;
7659;SDS011;3872;47.902;8.162;2022-08-11T09:27:57;7.00;;;1.77;;
7659;SDS011;3872;47.902;8.162;2022-08-11T09:30:26;4.63;;;1.90;;
7659;SDS011;3872;47.902;8.162;2022-08-11T09:32:54;4.87;;;1.80;;
7659;SDS011;3872;47.902;8.162;2022-08-11T09:35:24;4.60;;;1.63;;
7659;SDS011;3872;47.902;8.162;2022-08-11T09:37:52;5.70;;;1.50;;
7659;SDS011;3872;47.902;8.162;2022-08-11T09:40:37;4.57;;;1.70;;
7659;SDS011;3872;47.902;8.162;2022-08-11T09:43:05;5.87;;;1.30;;
7659;SDS011;3872;47.902;8.162;2022-08-11T09:45:54;8.80;;;2.10;;
7659;SDS011;3872;47.902;8.162;2022-08-11T09:48:23;6.40;;;1.90;;
7659;SDS011;3872;47.902;8.162;2022-08-11T09:50:52;4.93;;;1.57;;
7659;SDS011;3872;47.902;8.162;2022-08-11T09:53:21;6.10;;;1.97;;
7659;SDS011;3872;47.902;8.162;2022-08-11T09:55:48;5.80;;;2.00;;
7659;SDS011;3872;47.902;8.162;2022-08-11T09:58:17;9.03;;;1.80;;
7659;SDS011;3872;47.902;8.162;2022-08-11T10:00:44;4.90;;;1.60;;
7659;SDS011;3872;47.902;8.162;2022-08-11T10:03:16;9.00;;;1.80;;
7659;SDS011;3872;47.902;8.162;2022-08-11T10:05:48;5.90;;;1.57;;
7659;SDS011;3872;47.902;8.162;2022-08-11T10:08:34;6.00;;;2.03;;
7659;SDS011;3872;47.902;8.162;2022-08-11T10:11:04;9.30;;;2.17;;
7659;SDS011;3872;47.902;8.162;2022-08-11T10:13:33;4.73;;;1.90;;
7659;SDS011;3872;47.902;8.162;2022-08-11T10:16:20;8.37;;;1.50;;
7659;SDS011;3872;47.902;8.162;2022-08-11T10:18:52;5.67;;;1.90;;
7659;SDS011;3872;47.902;8.162;2022-08-11T10:21:24;4.33;;;1.40;;
7659;SDS011;3872;47.902;8.162;2022-08-11T10:23:54;4.90;;;1.70;;
7659;SDS011;3872;47.902;8.162;2022-08-11T10:26:40;5.37;;;1.70;;
7659;SDS011;3872;47.902;8.162;2022-08-11T10:29:20;4.30;;;1.47;;
7659;SDS011;3872;47.902;8.162;2022-08-11T10:32:06;4.40;;;1.40;;
7659;SDS011;3872;47.902;8.162;2022-08-11T10:34:53;6.37;;;1.73;;
7659;SDS011;3872;47.902;8.162;2022-08-11T10:37:22;5.00;;;1.80;;
7659;SDS011;3872;47.902;8.162;2022-08-11T10:39:50;5.00;;;1.93;;
7659;SDS011;3872;47.902;8.162;2022-08-11T10:42:17;4.80;;;1.70;;
7659;SDS011;3872;47.902;8.162;2022-08-11T10:45:03;5.53;;;1.93;;
7659;SDS011;3872;47.902;8.162;2022-08-11T10:47:53;5.43;;;1.83;;
7659;SDS011;3872;47.902;8.162;2022-08-11T10:50:22;5.53;;;2.00;;
7659;SDS011;3872;47.902;8.162;2022-08-11T10:53:07;4.30;;;1.40;;
7659;SDS011;3872;47.902;8.162;2022-08-11T10:55:52;6.10;;;1.60;;
7659;SDS011;3872;47.902;8.162;2022-08-11T10:58:37;6.70;;;1.60;;
7659;SDS011;3872;47.902;8.162;2022-08-11T11:01:12;6.30;;;1.67;;
7659;SDS011;3872;47.902;8.162;2022-08-11T11:03:40;5.43;;;2.00;;
7659;SDS011;3872;47.902;8.162;2022-08-11T11:06:11;8.70;;;2.03;;
7659;SDS011;3872;47.902;8.162;2022-08-11T11:08:50;5.77;;;1.70;;
7659;SDS011;3872;47.902;8.162;2022-08-11T11:11:22;4.47;;;1.47;;
7659;SDS011;3872;47.902;8.162;2022-08-11T11:14:10;5.00;;;1.70;;
7659;SDS011;3872;47.902;8.162;2022-08-11T11:16:58;4.90;;;1.50;;
7659;SDS011;3872;47.902;8.162;2022-08-11T11:19:43;5.20;;;1.60;;
7659;SDS011;3872;47.902;8.162;2022-08-11T11:22:12;10.63;;;1.70;;
7659;SDS011;3872;47.902;8.162;2022-08-11T11:25:01;4.80;;;1.57;;
7659;SDS011;3872;47.902;8.162;2022-08-11T11:27:34;5.87;;;1.40;;
7659;SDS011;3872;47.902;8.162;2022-08-11T11:30:13;4.30;;;1.30;;
7659;SDS011;3872;47.902;8.162;2022-08-11T11:32:43;5.40;;;1.70;;
7659;SDS011;3872;47.902;8.162;2022-08-11T11:35:25;6.07;;;1.73;;
7659;SDS011;3872;47.902;8.162;2022-08-11T11:38:02;5.37;;;1.50;;
7659;SDS011;3872;47.902;8.162;2022-08-11T11:40:33;5.70;;;1.83;;
7659;SDS011;3872;47.902;8.162;2022-08-11T11:43:01;9.23;;;2.83;;
7659;SDS011;3872;47.902;8.162;2022-08-11T11:45:29;9.00;;;2.00;;
7659;SDS011;3872;47.902;8.162;2022-08-11T11:47:57;6.50;;;1.60;;
7659;SDS011;3872;47.902;8.162;2022-08-11T11:50:26;4.50;;;1.57;;
7659;SDS011;3872;47.902;8.162;2022-08-11T11:52:55;6.30;;;1.83;;
7659;SDS011;3872;47.902;8.162;2022-08-11T11:55:25;5.77;;;1.80;;
7659;SDS011;3872;47.902;8.162;2022-08-11T11:57:54;4.93;;;1.80;;
7659;SDS011;3872;47.902;8.162;2022-08-11T12:00:42;7.20;;;1.73;;
7659;SDS011;3872;47.902;8.162;2022-08-11T12:03:26;5.73;;;1.40;;
7659;SDS011;3872;47.902;8.162;2022-08-11T12:05:54;5.50;;;1.70;;
7659;SDS011;3872;47.902;8.162;2022-08-11T12:08:22;6.60;;;1.87;;
7659;SDS011;3872;47.902;8.162;2022-08-11T12:10:52;4.60;;;1.60;;
7659;SDS011;3872;47.902;8.162;2022-08-11T12:13:36;26.97;;;1.90;;
7659;SDS011;3872;47.902;8.162;2022-08-11T12:16:07;6.17;;;1.83;;
7659;SDS011;3872;47.902;8.162;2022-08-11T12:18:35;6.30;;;2.00;;
7659;SDS011;3872;47.902;8.162;2022-08-11T12:21:03;4.33;;;1.60;;
7659;SDS011;3872;47.902;8.162;2022-08-11T12:23:33;8.90;;;2.50;;
7659;SDS011;3872;47.902;8.162;2022-08-11T12:26:19;4.70;;;1.47;;
7659;SDS011;3872;47.902;8.162;2022-08-11T12:29:06;4.83;;;1.80;;
7659;SDS011;3872;47.902;8.162;2022-08-11T12:31:35;11.33;;;2.40;;
7659;SDS011;3872;47.902;8.162;2022-08-11T12:34:03;5.23;;;2.07;;
7659;SDS011;3872;47.902;8.162;2022-08-11T12:36:34;6.20;;;1.83;;
7659;SDS011;3872;47.902;8.162;2022-08-11T12:39:02;5.07;;;1.97;;
7659;SDS011;3872;47.902;8.162;2022-08-11T12:41:33;4.50;;;1.53;;
7659;SDS011;3872;47.902;8.162;2022-08-11T12:44:18;6.70;;;2.00;;
7659;SDS011;3872;47.902;8.162;2022-08-11T12:47:06;5.53;;;1.80;;
7659;SDS011;3872;47.902;8.162;2022-08-11T12:49:34;6.23;;;2.03;;
7659;SDS011;3872;47.902;8.162;2022-08-11T12:52:22;5.40;;;1.70;;
7659;SDS011;3872;47.902;8.162;2022-08-11T12:54:54;4.60;;;1.60;;
7659;SDS011;3872;47.902;8.162;2022-08-11T12:57:29;4.40;;;1.40;;
7659;SDS011;3872;47.902;8.162;2022-08-11T13:00:17;7.90;;;1.63;;
7659;SDS011;3872;47.902;8.162;2022-08-11T13:03:02;7.27;;;2.00;;
7659;SDS011;3872;47.902;8.162;2022-08-11T13:05:48;5.60;;;1.60;;
7659;SDS011;3872;47.902;8.162;2022-08-11T13:08:19;4.90;;;1.87;;
7659;SDS011;3872;47.902;8.162;2022-08-11T13:10:49;7.90;;;1.73;;
7659;SDS011;3872;47.902;8.162;2022-08-11T13:13:35;5.87;;;1.90;;
7659;SDS011;3872;47.902;8.162;2022-08-11T13:16:04;4.60;;;1.40;;
7659;SDS011;3872;47.902;8.162;2022-08-11T13:18:32;6.13;;;1.80;;
7659;SDS011;3872;47.902;8.162;2022-08-11T13:20:59;5.80;;;2.03;;
7659;SDS011;3872;47.902;8.162;2022-08-11T13:23:27;4.60;;;1.90;;
7659;SDS011;3872;47.902;8.162;2022-08-11T13:25:54;4.60;;;1.70;;
7659;SDS011;3872;47.902;8.162;2022-08-11T13:28:22;7.27;;;1.80;;
7659;SDS011;3872;47.902;8.162;2022-08-11T13:30:50;5.90;;;1.90;;
7659;SDS011;3872;47.902;8.162;2022-08-11T13:33:38;6.95;;;2.30;;
7659;SDS011;3872;47.902;8.162;2022-08-11T13:36:07;4.83;;;1.57;;
7659;SDS011;3872;47.902;8.162;2022-08-11T13:38:34;4.90;;;2.00;;
7659;SDS011;3872;47.902;8.162;2022-08-11T13:41:02;5.90;;;1.90;;
7659;SDS011;3872;47.902;8.162;2022-08-11T13:43:51;11.40;;;1.60;;
7659;SDS011;3872;47.902;8.162;2022-08-11T13:46:21;5.27;;;2.07;;
7659;SDS011;3872;47.902;8.162;2022-08-11T13:48:48;4.80;;;1.98;;
7659;SDS011;3872;47.902;8.162;2022-08-11T13:51:16;4.90;;;1.52;;
7659;SDS011;3872;47.902;8.162;2022-08-11T13:53:58;4.97;;;1.90;;
7659;SDS011;3872;47.902;8.162;2022-08-11T13:56:27;5.00;;;1.83;;
7659;SDS011;3872;47.902;8.162;2022-08-11T13:58:55;5.13;;;2.13;;
7659;SDS011;3872;47.902;8.162;2022-08-11T14:01:25;4.85;;;1.90;;
7659;SDS011;3872;47.902;8.162;2022-08-11T14:03:58;5.18;;;1.63;;
7659;SDS011;3872;47.902;8.162;2022-08-11T14:06:30;4.30;;;1.80;;
7659;SDS011;3872;47.902;8.162;2022-08-11T14:08:58;4.63;;;1.98;;
7659;SDS011;3872;47.902;8.162;2022-08-11T14:11:27;7.47;;;1.98;;
7659;SDS011;3872;47.902;8.162;2022-08-11T14:14:31;5.40;;;1.70;;
7659;SDS011;3872;47.902;8.162;2022-08-11T14:17:03;8.40;;;1.80;;
7659;SDS011;3872;47.902;8.162;2022-08-11T14:19:32;4.72;;;1.55;;
7659;SDS011;3872;47.902;8.162;2022-08-11T14:22:02;6.55;;;2.00;;
7659;SDS011;3872;47.902;8.162;2022-08-11T14:24:33;8.45;;;2.30;;
7659;SDS011;3872;47.902;8.162;2022-08-11T14:27:01;6.97;;;1.92;;
7659;SDS011;3872;47.902;8.162;2022-08-11T14:29:30;5.30;;;1.67;;
7659;SDS011;3872;47.902;8.162;2022-08-11T14:32:04;9.05;;;2.50;;
7659;SDS011;3872;47.902;8.162;2022-08-11T14:34:33;6.68;;;2.03;;
7659;SDS011;3872;47.902;8.162;2022-08-11T14:37:03;6.30;;;2.17;;
7659;SDS011;3872;47.902;8.162;2022-08-11T14:39:33;9.27;;;1.67;;
7659;SDS011;3872;47.902;8.162;2022-08-11T14:42:01;10.10;;;1.90;;
7659;SDS011;3872;47.902;8.162;2022-08-11T14:44:49;4.57;;;2.10;;
7659;SDS011;3872;47.902;8.162;2022-08-11T14:47:37;6.97;;;2.10;;
7659;SDS011;3872;47.902;8.162;2022-08-11T14:50:07;5.20;;;2.13;;
7659;SDS011;3872;47.902;8.162;2022-08-11T14:52:38;5.80;;;1.70;;
7659;SDS011;3872;47.902;8.162;2022-08-11T14:55:09;15.30;;;2.60;;
7659;SDS011;3872;47.902;8.162;2022-08-11T14:58:07;6.37;;;1.80;;
7659;SDS011;3872;47.902;8.162;2022-08-11T15:00:35;5.10;;;2.10;;
7659;SDS011;3872;47.902;8.162;2022-08-11T15:03:04;5.60;;;1.87;;
7659;SDS011;3872;47.902;8.162;2022-08-11T15:05:37;4.83;;;1.90;;
7659;SDS011;3872;47.902;8.162;2022-08-11T15:08:12;9.20;;;1.90;;
7659;SDS011;3872;47.902;8.162;2022-08-11T15:10:40;4.53;;;1.60;;
7659;SDS011;3872;47.902;8.162;2022-08-11T15:13:07;7.07;;;2.15;;
7659;SDS011;3872;47.902;8.162;2022-08-11T15:15:35;4.60;;;1.90;;
7659;SDS011;3872;47.902;8.162;2022-08-11T15:18:21;5.75;;;2.00;;
7659;SDS011;3872;47.902;8.162;2022-08-11T15:20:50;11.85;;;1.85;;
7659;SDS011;3872;47.902;8.162;2022-08-11T15:23:35;6.30;;;2.50;;
7659;SDS011;3872;47.902;8.162;2022-08-11T15:26:21;5.43;;;2.20;;
7659;SDS011;3872;47.902;8.162;2022-08-11T15:29:07;4.90;;;1.70;;
7659;SDS011;3872;47.902;8.162;2022-08-11T15:31:52;5.20;;;2.10;;
7659;SDS011;3872;47.902;8.162;2022-08-11T15:34:39;6.20;;;2.33;;
7659;SDS011;3872;47.902;8.162;2022-08-11T15:37:20;4.70;;;1.83;;
7659;SDS011;3872;47.902;8.162;2022-08-11T15:40:00;7.80;;;2.47;;
7659;SDS011;3872;47.902;8.162;2022-08-11T15:42:50;5.07;;;2.23;;
7659;SDS011;3872;47.902;8.162;2022-08-11T15:45:40;8.50;;;2.30;;
7659;SDS011;3872;47.902;8.162;2022-08-11T15:48:15;9.40;;;1.97;;
7659;SDS011;3872;47.902;8.162;2022-08-11T15:50:49;4.70;;;1.93;;
7659;SDS011;3872;47.902;8.162;2022-08-11T15:53:21;5.37;;;2.07;;
7659;SDS011;3872;47.902;8.162;2022-08-11T15:55:52;5.20;;;2.00;;
7659;SDS011;3872;47.902;8.162;2022-08-11T15:58:20;4.77;;;2.03;;
7659;SDS011;3872;47.902;8.162;2022-08-11T16:01:23;6.23;;;2.33;;
7659;SDS011;3872;47.902;8.162;2022-08-11T16:04:09;5.83;;;2.07;;
7659;SDS011;3872;47.902;8.162;2022-08-11T16:06:43;5.53;;;2.37;;
7659;SDS011;3872;47.902;8.162;2022-08-11T16:09:14;5.10;;;2.40;;
7659;SDS011;3872;47.902;8.162;2022-08-11T16:11:45;6.80;;;2.33;;
7659;SDS011;3872;47.902;8.162;2022-08-11T16:14:14;7.53;;;2.40;;
7659;SDS011;3872;47.902;8.162;2022-08-11T16:16:59;4.80;;;2.20;;
7659;SDS011;3872;47.902;8.162;2022-08-11T16:19:28;6.03;;;2.40;;
7659;SDS011;3872;47.902;8.162;2022-08-11T16:22:02;4.73;;;2.20;;
7659;SDS011;3872;47.902;8.162;2022-08-11T16:24:34;5.63;;;2.20;;
7659;SDS011;3872;47.902;8.162;2022-08-11T16:27:04;7.53;;;2.60;;
7659;SDS011;3872;47.902;8.162;2022-08-11T16:29:31;5.43;;;2.20;;
7659;SDS011;3872;47.902;8.162;2022-08-11T16:32:02;4.87;;;2.20;;
7659;SDS011;3872;47.902;8.162;2022-08-11T16:34:42;4.67;;;2.10;;
7659;SDS011;3872;47.902;8.162;2022-08-11T16:37:29;5.80;;;2.63;;
7659;SDS011;3872;47.902;8.162;2022-08-11T16:40:16;5.13;;;2.17;;
7659;SDS011;3872;47.902;8.162;2022-08-11T16:42:47;7.83;;;2.40;;
7659;SDS011;3872;47.902;8.162;2022-08-11T16:45:32;7.10;;;2.53;;
7659;SDS011;3872;47.902;8.162;2022-08-11T16:48:19;5.80;;;2.37;;
7659;SDS011;3872;47.902;8.162;2022-08-11T16:50:47;4.70;;;2.10;;
7659;SDS011;3872;47.902;8.162;2022-08-11T16:53:16;4.87;;;1.97;;
7659;SDS011;3872;47.902;8.162;2022-08-11T16:55:51;6.60;;;2.37;;
7659;SDS011;3872;47.902;8.162;2022-08-11T16:58:20;7.27;;;2.00;;
7659;SDS011;3872;47.902;8.162;2022-08-11T17:01:11;6.40;;;2.20;;
7659;SDS011;3872;47.902;8.162;2022-08-11T17:03:40;5.00;;;2.10;;
7659;SDS011;3872;47.902;8.162;2022-08-11T17:06:28;6.80;;;2.40;;